Portada
METAR-TAF:

METAR-TAF

Aeroports :

Rock Hill/York County Airport (Bryant Field)

Rock Hill, Carolina del Sud, Estats Units d'Amèrica

latitud: 34-59-02N, longitud: 081-03-21W, altitud: 204 m

Observació

L'informe es va fer fa 57 minuts, a les 05:54 UTC
Vent 5 kt del Oest/Sud-Oest
Temperatura 21°C
Humitat 88%
Pressió 1020 hPa
Visibilitat: 12.9 km
Cel clar

METAR: KUZA 240554Z AUTO 24005KT 8SM CLR 21/19 A3013 RMK AO2 SLP192 T02060194 10272 20206 58010

Hora: 02:51 (06:51 UTC)


TAF: manca

Observacions i pronòstics meteorològics de més de 4000 aeroports (METAR i TAF).

Les estacions disponibles són els punts grocs i vermells al mapa.

Posi el ratolí al punt desitjat per veure el nom de l'estació.

Feu clic per veure les observacions i els pronòstics meteorològics.

Per canviar el mapa: feu clic els botons verds amb una creu de color negre per apropar; al botó verd amb un guió per allunyar la imatge; o en les fletxes verdes per a mapes adjacents.


METAR-TAF: